Time;durP1;ratioP1;P1;durP2;ratioP2;P2;SDS_P1;SDS_P2;PMS_P1;PMS_P2;Temp;Humidity;BMP_temperature;BMP_pressure;BME280_temperature;BME280_humidity;BME280_pressure;Samples;Min_cycle;Max_cycle;Signal;HPM_P1;HPM_P2
2023/10/16 00:01:14;;;;;;;16.55;8.10;;;;;;;;;;4920976;29;20028;-58
2023/10/16 00:03:43;;;;;;;17.55;7.65;;;;;;;;;;4919173;29;20039;-58
2023/10/16 00:06:12;;;;;;;12.63;7.18;;;;;;;;;;4914829;29;20040;-58
2023/10/16 00:08:47;;;;;;;14.98;7.38;;;;;;;;;;4908170;29;20052;-60
2023/10/16 00:11:24;;;;;;;15.30;8.15;;;;;;;;;;4932895;29;20044;-61
2023/10/16 00:13:50;;;;;;;17.10;8.13;;;;;;;;;;4932412;29;20107;-60
2023/10/16 00:16:17;;;;;;;16.42;8.02;;;;;;;;;;4941062;29;20036;-57
2023/10/16 00:18:45;;;;;;;18.63;8.13;;;;;;;;;;4934253;29;20031;-57
2023/10/16 00:21:13;;;;;;;15.43;8.30;;;;;;;;;;4936233;29;20032;-56
2023/10/16 00:23:39;;;;;;;17.00;8.88;;;;;;;;;;4916608;29;20500;-61
2023/10/16 00:26:19;;;;;;;17.02;8.85;;;;;;;;;;4919516;29;20155;-59
2023/10/16 00:28:45;;;;;;;14.50;8.50;;;;;;;;;;4931155;29;20043;-56
2023/10/16 00:31:20;;;;;;;18.17;8.82;;;;;;;;;;4933230;29;20036;-59
2023/10/16 00:33:45;;;;;;;16.50;8.90;;;;;;;;;;4937671;29;20036;-57
2023/10/16 00:36:11;;;;;;;15.95;9.50;;;;;;;;;;4937901;29;20032;-57
2023/10/16 00:38:37;;;;;;;17.65;8.90;;;;;;;;;;4933645;29;20051;-60
2023/10/16 00:41:46;;;;;;;17.42;9.00;;;;;;;;;;4935731;29;20035;-55
2023/10/16 00:43:51;;;;;;;17.35;8.40;;;;;;;;;;4919377;29;20056;-60
2023/10/16 00:46:30;;;;;;;17.52;8.77;;;;;;;;;;4934767;29;20051;-58
2023/10/16 00:48:56;;;;;;;17.40;8.77;;;;;;;;;;4935221;29;20039;-56
2023/10/16 00:51:22;;;;;;;17.38;9.20;;;;;;;;;;4934608;29;20059;-58
2023/10/16 00:53:48;;;;;;;15.80;8.35;;;;;;;;;;4934847;29;20095;-58
2023/10/16 00:56:14;;;;;;;16.02;8.32;;;;;;;;;;4934405;29;20461;-57
2023/10/16 00:58:42;;;;;;;15.45;8.15;;;;;;;;;;4933854;29;20147;-60
2023/10/16 01:01:14;;;;;;;16.42;8.43;;;;;;;;;;4935336;29;20504;-59
2023/10/16 01:03:41;;;;;;;14.40;8.02;;;;;;;;;;4931575;29;20091;-60
2023/10/16 01:06:17;;;;;;;15.98;7.82;;;;;;;;;;4915602;29;20123;-58
2023/10/16 01:08:49;;;;;;;17.02;7.68;;;;;;;;;;4920306;29;20059;-60
2023/10/16 01:11:15;;;;;;;14.02;8.05;;;;;;;;;;4931602;29;20053;-59
2023/10/16 01:13:41;;;;;;;18.25;8.25;;;;;;;;;;4933244;29;20492;-62
2023/10/16 01:16:09;;;;;;;15.82;7.88;;;;;;;;;;4933059;29;20095;-60
2023/10/16 01:18:35;;;;;;;19.75;7.55;;;;;;;;;;4932326;29;20469;-59
2023/10/16 01:21:05;;;;;;;17.52;8.40;;;;;;;;;;4935862;29;20171;-60
2023/10/16 01:23:31;;;;;;;12.82;7.70;;;;;;;;;;4934704;29;20038;-58
2023/10/16 01:26:02;;;;;;;15.93;8.18;;;;;;;;;;4933166;29;20083;-61
2023/10/16 01:28:30;;;;;;;14.10;8.07;;;;;;;;;;4934497;29;20046;-60
2023/10/16 01:30:55;;;;;;;15.80;7.55;;;;;;;;;;4928942;29;20089;-61
2023/10/16 01:33:23;;;;;;;12.88;7.15;;;;;;;;;;4934177;29;20388;-61
2023/10/16 01:35:50;;;;;;;16.38;7.85;;;;;;;;;;4918519;29;20374;-60
2023/10/16 01:38:19;;;;;;;16.80;7.85;;;;;;;;;;4934616;29;20448;-61
2023/10/16 01:41:05;;;;;;;16.30;7.78;;;;;;;;;;4932864;29;20388;-61
2023/10/16 01:43:32;;;;;;;13.60;7.30;;;;;;;;;;4934714;29;20464;-61
2023/10/16 01:46:08;;;;;;;15.13;7.40;;;;;;;;;;4918843;29;20028;-61
2023/10/16 01:48:40;;;;;;;14.63;7.13;;;;;;;;;;4917046;29;20038;-61
2023/10/16 01:51:06;;;;;;;15.32;7.35;;;;;;;;;;4916577;29;20039;-60
2023/10/16 01:53:39;;;;;;;15.98;7.38;;;;;;;;;;4931399;29;20039;-60
2023/10/16 01:56:15;;;;;;;18.98;7.90;;;;;;;;;;4936765;29;20039;-60
2023/10/16 01:58:45;;;;;;;15.63;7.40;;;;;;;;;;4933545;29;20028;-61
2023/10/16 02:01:15;;;;;;;16.30;7.53;;;;;;;;;;4933934;29;20043;-60
2023/10/16 02:03:45;;;;;;;15.13;8.10;;;;;;;;;;4932781;29;20036;-60
2023/10/16 02:06:18;;;;;;;15.20;7.70;;;;;;;;;;4932226;29;20031;-60
2023/10/16 02:08:46;;;;;;;16.08;7.97;;;;;;;;;;4913319;29;20084;-62
2023/10/16 02:11:12;;;;;;;13.10;6.93;;;;;;;;;;4933206;29;20044;-61
2023/10/16 02:13:41;;;;;;;13.35;8.32;;;;;;;;;;4934184;29;20118;-61
2023/10/16 02:16:12;;;;;;;16.88;7.78;;;;;;;;;;4932307;29;20039;-62
2023/10/16 02:18:41;;;;;;;15.95;7.63;;;;;;;;;;4934194;29;20039;-61
2023/10/16 02:21:13;;;;;;;15.63;8.73;;;;;;;;;;4934691;29;20035;-61
2023/10/16 02:23:39;;;;;;;15.65;7.60;;;;;;;;;;4931429;29;20035;-61
2023/10/16 02:26:09;;;;;;;17.35;8.43;;;;;;;;;;4932262;29;20601;-61
2023/10/16 02:28:46;;;;;;;15.57;8.38;;;;;;;;;;4916056;29;20039;-61
2023/10/16 02:31:17;;;;;;;12.70;7.47;;;;;;;;;;4930161;29;20035;-61
2023/10/16 02:33:53;;;;;;;14.18;8.23;;;;;;;;;;4933902;29;20043;-62
2023/10/16 02:36:19;;;;;;;19.10;8.57;;;;;;;;;;4934033;29;20062;-61
2023/10/16 02:38:47;;;;;;;16.30;8.23;;;;;;;;;;4927875;29;20453;-62
2023/10/16 02:41:14;;;;;;;15.52;8.00;;;;;;;;;;4932955;29;20201;-61
2023/10/16 02:43:42;;;;;;;13.25;8.07;;;;;;;;;;4931679;29;20121;-61
2023/10/16 02:46:11;;;;;;;17.17;7.47;;;;;;;;;;4930305;29;20220;-60
2023/10/16 02:48:43;;;;;;;14.90;8.65;;;;;;;;;;4932450;29;20035;-60
2023/10/16 02:51:10;;;;;;;14.43;7.70;;;;;;;;;;4932645;29;20040;-60
2023/10/16 02:53:42;;;;;;;18.52;8.02;;;;;;;;;;4933226;29;20046;-60
2023/10/16 02:56:08;;;;;;;20.10;9.45;;;;;;;;;;4914296;29;20039;-61
2023/10/16 02:58:42;;;;;;;19.25;9.32;;;;;;;;;;4932150;29;20036;-60
2023/10/16 03:01:14;;;;;;;18.58;9.02;;;;;;;;;;4914678;29;20793;-60
2023/10/16 03:03:43;;;;;;;21.15;8.65;;;;;;;;;;4932388;29;20050;-60
2023/10/16 03:06:09;;;;;;;19.85;8.55;;;;;;;;;;4927231;29;20888;-59
2023/10/16 03:08:48;;;;;;;19.75;8.90;;;;;;;;;;4929960;29;20032;-59
2023/10/16 03:11:17;;;;;;;21.83;9.02;;;;;;;;;;4930903;29;20035;-61
2023/10/16 03:13:50;;;;;;;21.95;9.65;;;;;;;;;;4931071;29;20139;-61
2023/10/16 03:16:23;;;;;;;19.98;9.38;;;;;;;;;;4931912;29;20031;-61
2023/10/16 03:18:49;;;;;;;18.60;9.15;;;;;;;;;;4928918;29;20047;-61
2023/10/16 03:23:45;;;;;;;16.17;8.57;;;;;;;;;;4932119;29;20046;-61
2023/10/16 03:26:31;;;;;;;15.32;8.27;;;;;;;;;;4931541;29;20043;-61
2023/10/16 03:28:58;;;;;;;13.38;8.13;;;;;;;;;;4937935;29;20058;-61
2023/10/16 03:31:24;;;;;;;19.92;8.63;;;;;;;;;;4935934;29;20032;-61
2023/10/16 03:33:50;;;;;;;19.65;8.85;;;;;;;;;;4931588;29;20069;-61
2023/10/16 03:36:17;;;;;;;16.48;8.45;;;;;;;;;;4930431;29;20023;-60
2023/10/16 03:38:43;;;;;;;15.55;8.23;;;;;;;;;;4932409;29;20063;-60
2023/10/16 03:41:13;;;;;;;16.95;8.65;;;;;;;;;;4936228;29;20039;-60
2023/10/16 03:43:42;;;;;;;22.40;9.10;;;;;;;;;;4937073;29;20043;-61
2023/10/16 03:46:10;;;;;;;18.38;8.80;;;;;;;;;;4932295;29;20046;-63
2023/10/16 03:48:37;;;;;;;16.40;8.43;;;;;;;;;;4935223;29;20473;-60
2023/10/16 03:51:02;;;;;;;17.10;8.07;;;;;;;;;;4936092;29;20036;-58
2023/10/16 03:53:32;;;;;;;18.40;8.63;;;;;;;;;;4919557;29;20035;-61
2023/10/16 03:55:58;;;;;;;18.77;7.85;;;;;;;;;;4946088;29;20091;-61
2023/10/16 03:58:26;;;;;;;16.83;8.70;;;;;;;;;;4934324;29;20047;-60
2023/10/16 04:00:57;;;;;;;16.95;8.25;;;;;;;;;;4934668;29;20039;-62
2023/10/16 04:03:23;;;;;;;14.88;8.07;;;;;;;;;;4933482;29;20540;-59
2023/10/16 04:05:50;;;;;;;15.55;7.88;;;;;;;;;;4935118;29;20036;-61
2023/10/16 04:08:26;;;;;;;13.60;7.97;;;;;;;;;;4935327;29;20032;-59
2023/10/16 04:10:56;;;;;;;21.95;8.55;;;;;;;;;;4935992;29;20039;-61
2023/10/16 04:13:26;;;;;;;19.30;8.13;;;;;;;;;;4898818;29;20485;-59
2023/10/16 04:18:30;;;;;;;14.77;7.85;;;;;;;;;;4916039;29;20090;-59
2023/10/16 04:31:57;;;;;;;17.42;9.40;;;;;;;;;;4914047;29;20123;-60
2023/10/16 04:50:37;;;;;;;39.45;22.40;;;;;;;;;;4917151;29;20040;-59
2023/10/16 04:53:12;;;;;;;39.85;20.10;;;;;;;;;;4908540;29;20040;-60
2023/10/16 05:13:17;;;;;;;21.38;10.57;;;;;;;;;;4900095;29;20048;-60
2023/10/16 05:15:20;;;;;;;21.63;11.40;;;;;;;;;;4922071;29;20469;-59
2023/10/16 05:19:46;;;;;;;25.38;13.02;;;;;;;;;;4951236;29;20217;-60
2023/10/16 06:14:10;;;;;;;25.65;12.68;;;;;;;;;;4916401;29;20046;-61
2023/10/16 06:16:50;;;;;;;25.95;13.38;;;;;;;;;;4916589;29;20103;-62
2023/10/16 06:19:16;;;;;;;22.48;12.48;;;;;;;;;;4915700;29;20036;-62
2023/10/16 06:21:52;;;;;;;26.10;12.77;;;;;;;;;;4916674;29;20040;-60
2023/10/16 06:24:32;;;;;;;30.25;13.52;;;;;;;;;;4898277;29;20041;-61
2023/10/16 06:27:08;;;;;;;31.52;14.13;;;;;;;;;;4934816;29;20039;-62
2023/10/16 06:29:49;;;;;;;26.60;13.70;;;;;;;;;;4917789;29;20047;-60
2023/10/16 06:32:18;;;;;;;33.55;14.23;;;;;;;;;;4905662;29;20897;-61
2023/10/16 06:35:07;;;;;;;29.95;14.15;;;;;;;;;;4926470;29;20130;-62
2023/10/16 06:37:33;;;;;;;24.95;13.45;;;;;;;;;;4902370;29;20096;-61
2023/10/16 06:40:00;;;;;;;30.45;14.13;;;;;;;;;;4898620;29;20457;-63
2023/10/16 06:42:27;;;;;;;39.20;14.20;;;;;;;;;;4915751;29;20552;-61
2023/10/16 06:45:03;;;;;;;30.95;14.77;;;;;;;;;;4898913;29;20371;-61
2023/10/16 06:47:35;;;;;;;31.83;13.82;;;;;;;;;;4915933;29;20040;-61
2023/10/16 06:50:02;;;;;;;31.77;14.38;;;;;;;;;;4915245;29;20036;-61
2023/10/16 06:52:27;;;;;;;27.92;14.20;;;;;;;;;;4914813;29;20123;-62
2023/10/16 06:54:53;;;;;;;30.40;14.88;;;;;;;;;;4914607;29;20534;-60
2023/10/16 06:57:19;;;;;;;27.70;14.20;;;;;;;;;;4914222;29;20032;-56
2023/10/16 06:59:45;;;;;;;28.98;15.15;;;;;;;;;;4898400;29;20036;-64
2023/10/16 07:02:19;;;;;;;26.08;14.38;;;;;;;;;;4914736;29;20466;-62
2023/10/16 07:04:46;;;;;;;36.55;14.70;;;;;;;;;;4915216;29;20025;-63
2023/10/16 07:07:15;;;;;;;31.83;15.35;;;;;;;;;;4914617;29;20389;-61
2023/10/16 07:09:47;;;;;;;34.85;15.82;;;;;;;;;;4915762;29;20433;-60
2023/10/16 07:12:19;;;;;;;31.80;15.38;;;;;;;;;;4935087;29;20047;-61
2023/10/16 07:15:01;;;;;;;30.52;16.15;;;;;;;;;;4952964;28;20035;-61
2023/10/16 07:17:28;;;;;;;30.83;15.65;;;;;;;;;;4934544;29;20036;-64
2023/10/16 07:20:00;;;;;;;37.20;15.88;;;;;;;;;;4934088;29;20107;-61
2023/10/16 07:22:32;;;;;;;30.70;15.85;;;;;;;;;;4936112;29;20644;-61
2023/10/16 07:25:22;;;;;;;35.03;16.42;;;;;;;;;;4954166;29;20027;-61
2023/10/16 07:27:47;;;;;;;36.28;15.77;;;;;;;;;;4932820;29;20118;-62
2023/10/16 07:30:22;;;;;;;30.58;15.23;;;;;;;;;;4933386;29;20059;-61
2023/10/16 07:32:48;;;;;;;32.35;14.60;;;;;;;;;;4934356;29;20130;-61
2023/10/16 07:35:17;;;;;;;33.28;15.23;;;;;;;;;;4933076;29;20036;-61
2023/10/16 07:37:48;;;;;;;34.45;15.63;;;;;;;;;;4901655;29;20123;-61
2023/10/16 07:40:20;;;;;;;30.20;14.40;;;;;;;;;;4942264;29;20055;-61
2023/10/16 07:42:46;;;;;;;;;;;;;;;;;;4918052;29;20027;-61
2023/10/16 07:45:12;;;;;;;31.15;14.55;;;;;;;;;;4933677;29;19914;-61
2023/10/16 07:47:37;;;;;;;29.38;14.38;;;;;;;;;;4916459;29;20499;-62
2023/10/16 07:50:04;;;;;;;33.40;16.75;;;;;;;;;;4916056;29;20389;-62
2023/10/16 07:52:30;;;;;;;38.03;16.17;;;;;;;;;;4934294;29;20066;-61
2023/10/16 07:54:55;;;;;;;30.77;15.43;;;;;;;;;;4933902;29;20036;-62
2023/10/16 07:57:23;;;;;;;30.58;15.30;;;;;;;;;;4917189;29;20293;-62
2023/10/16 07:59:54;;;;;;;34.45;16.00;;;;;;;;;;4953423;29;20066;-61
2023/10/16 08:02:20;;;;;;;37.35;16.30;;;;;;;;;;4936713;29;20039;-61
2023/10/16 08:04:51;;;;;;;34.35;15.98;;;;;;;;;;4933673;29;20397;-61
2023/10/16 08:07:18;;;;;;;;;;;;;;;;;;4933423;29;20385;-60
2023/10/16 08:12:18;;;;;;;30.88;14.55;;;;;;;;;;4932517;29;20057;-60
2023/10/16 08:14:45;;;;;;;33.33;15.43;;;;;;;;;;4934170;29;20477;-60
2023/10/16 08:17:23;;;;;;;31.75;16.08;;;;;;;;;;4932432;29;20517;-60
2023/10/16 08:19:50;;;;;;;28.15;15.55;;;;;;;;;;4933545;29;20369;-60
2023/10/16 08:22:15;;;;;;;30.00;15.75;;;;;;;;;;4935294;29;20469;-60
2023/10/16 08:24:57;;;;;;;31.85;15.88;;;;;;;;;;4933709;29;20039;-58
2023/10/16 08:30:32;;;;;;;28.67;15.05;;;;;;;;;;4936553;29;20454;-62
2023/10/16 08:33:06;;;;;;;27.90;15.52;;;;;;;;;;4918321;29;20044;-59
2023/10/16 08:35:38;;;;;;;28.23;15.52;;;;;;;;;;4917339;29;20446;-60
2023/10/16 08:41:14;;;;;;;32.42;15.48;;;;;;;;;;4892023;29;20072;-62
2023/10/16 08:43:52;;;;;;;23.45;13.80;;;;;;;;;;4936805;29;20528;-61
2023/10/16 08:46:19;;;;;;;27.73;14.05;;;;;;;;;;4935963;29;20091;-62
2023/10/16 08:48:48;;;;;;;29.77;14.32;;;;;;;;;;4937263;29;20031;-59
2023/10/16 08:51:16;;;;;;;25.67;14.20;;;;;;;;;;4935907;29;20495;-61
2023/10/16 08:53:48;;;;;;;26.35;14.23;;;;;;;;;;4937216;29;20358;-61
2023/10/16 08:56:17;;;;;;;24.13;14.38;;;;;;;;;;4935013;29;20031;-61
2023/10/16 08:58:46;;;;;;;27.17;14.18;;;;;;;;;;4920033;29;20475;-62
2023/10/16 09:01:18;;;;;;;26.90;13.45;;;;;;;;;;4935591;29;20063;-61
2023/10/16 09:03:57;;;;;;;26.15;13.30;;;;;;;;;;4936458;29;20028;-61
2023/10/16 09:06:24;;;;;;;32.22;13.40;;;;;;;;;;4935763;29;20099;-60
2023/10/16 09:08:54;;;;;;;25.80;13.63;;;;;;;;;;4922149;29;20035;-61
2023/10/16 09:11:21;;;;;;;24.77;14.45;;;;;;;;;;4935856;29;20544;-61
2023/10/16 09:13:51;;;;;;;24.83;13.00;;;;;;;;;;4936303;29;20039;-61
2023/10/16 09:16:21;;;;;;;26.40;12.38;;;;;;;;;;4935471;29;20024;-62
2023/10/16 09:18:53;;;;;;;25.80;13.07;;;;;;;;;;4918971;29;20036;-62
2023/10/16 09:21:25;;;;;;;24.38;13.40;;;;;;;;;;4935799;29;20548;-61
2023/10/16 09:23:51;;;;;;;27.13;13.63;;;;;;;;;;4936725;29;20457;-61
2023/10/16 09:26:17;;;;;;;23.55;12.45;;;;;;;;;;4934293;29;20075;-62
2023/10/16 09:28:47;;;;;;;23.52;12.60;;;;;;;;;;4947776;29;20460;-61
2023/10/16 09:31:18;;;;;;;24.48;12.48;;;;;;;;;;4952639;29;20486;-62
2023/10/16 09:33:45;;;;;;;26.55;12.80;;;;;;;;;;4932669;29;20050;-62
2023/10/16 09:36:17;;;;;;;22.42;12.25;;;;;;;;;;4934571;29;20056;-61
2023/10/16 09:38:53;;;;;;;26.02;13.20;;;;;;;;;;4945887;29;20043;-60
2023/10/16 09:49:13;;;;;;;25.88;12.95;;;;;;;;;;4935619;29;20448;-62
2023/10/16 09:51:45;;;;;;;20.33;11.25;;;;;;;;;;4918938;29;20528;-61
2023/10/16 09:54:13;;;;;;;22.55;11.82;;;;;;;;;;4918318;29;20126;-63
2023/10/16 09:56:41;;;;;;;20.13;11.27;;;;;;;;;;4935917;29;20056;-62
2023/10/16 09:59:38;;;;;;;21.83;11.85;;;;;;;;;;4933853;29;20552;-63
2023/10/16 10:02:16;;;;;;;22.95;12.00;;;;;;;;;;4918147;29;20028;-62
2023/10/16 10:05:03;;;;;;;26.10;12.27;;;;;;;;;;4935787;29;20461;-63
2023/10/16 10:07:46;;;;;;;22.60;11.52;;;;;;;;;;4934532;29;20481;-61
2023/10/16 10:13:08;;;;;;;19.30;9.50;;;;;;;;;;4935550;29;20063;-62
2023/10/16 10:15:38;;;;;;;16.75;9.45;;;;;;;;;;4918280;29;20087;-61
2023/10/16 10:20:58;;;;;;;16.75;8.43;;;;;;;;;;4935353;29;20070;-62
2023/10/16 10:23:25;;;;;;;16.10;9.10;;;;;;;;;;4934415;29;20046;-61
2023/10/16 10:25:53;;;;;;;16.67;9.05;;;;;;;;;;4923373;29;20537;-62
2023/10/16 10:28:23;;;;;;;21.05;8.63;;;;;;;;;;4938210;29;20035;-64
2023/10/16 10:30:50;;;;;;;17.45;8.68;;;;;;;;;;4931331;29;20086;-61
2023/10/16 10:33:51;;;;;;;18.13;8.40;;;;;;;;;;4934750;29;20176;-61
2023/10/16 10:36:43;;;;;;;12.93;7.85;;;;;;;;;;4917656;29;20461;-61
2023/10/16 10:42:03;;;;;;;15.93;8.90;;;;;;;;;;4935119;29;20517;-60
2023/10/16 10:44:45;;;;;;;16.88;8.43;;;;;;;;;;4934416;29;20078;-60
2023/10/16 10:47:21;;;;;;;11.60;7.00;;;;;;;;;;4933366;29;20038;-60
2023/10/16 10:49:49;;;;;;;13.02;6.90;;;;;;;;;;4934444;29;20042;-60
2023/10/16 10:52:18;;;;;;;8.75;4.72;;;;;;;;;;4934822;29;20040;-60
2023/10/16 10:54:43;;;;;;;8.57;4.70;;;;;;;;;;4918192;29;20473;-61
2023/10/16 10:57:17;;;;;;;6.90;3.83;;;;;;;;;;4913679;29;20036;-61
2023/10/16 10:59:56;;;;;;;8.27;4.10;;;;;;;;;;4915811;29;20028;-61
2023/10/16 11:04:58;;;;;;;7.90;4.45;;;;;;;;;;4934942;29;20532;-57
2023/10/16 11:07:45;;;;;;;10.57;4.45;;;;;;;;;;4933653;29;20028;-58
2023/10/16 11:10:13;;;;;;;9.48;4.35;;;;;;;;;;4917062;29;20046;-61
2023/10/16 11:12:38;;;;;;;6.72;3.47;;;;;;;;;;4934523;29;20479;-60
2023/10/16 11:15:10;;;;;;;8.88;4.20;;;;;;;;;;4933449;29;20051;-60
2023/10/16 11:17:44;;;;;;;8.68;3.80;;;;;;;;;;4929866;29;20032;-60
2023/10/16 11:22:47;;;;;;;7.22;3.75;;;;;;;;;;4930132;29;20070;-59
2023/10/16 11:25:14;;;;;;;5.70;2.60;;;;;;;;;;4933940;29;20059;-60
2023/10/16 11:27:44;;;;;;;7.47;3.30;;;;;;;;;;4934478;29;20040;-60
2023/10/16 11:30:15;;;;;;;9.43;3.30;;;;;;;;;;4916879;29;20036;-61
2023/10/16 11:32:45;;;;;;;7.50;3.30;;;;;;;;;;4934458;29;20346;-61
2023/10/16 11:35:15;;;;;;;5.47;3.20;;;;;;;;;;4929279;29;20032;-62
2023/10/16 11:38:12;;;;;;;5.70;2.97;;;;;;;;;;4934272;29;20111;-60
2023/10/16 11:40:42;;;;;;;5.35;2.97;;;;;;;;;;4934525;29;20465;-60
2023/10/16 11:43:11;;;;;;;5.43;3.10;;;;;;;;;;4916257;29;20036;-62
2023/10/16 11:45:45;;;;;;;6.68;3.20;;;;;;;;;;4934442;29;20039;-60
2023/10/16 11:50:52;;;;;;;;;;;;;;;;;;4915741;29;20114;-59
2023/10/16 11:53:23;;;;;;;6.30;3.50;;;;;;;;;;4925631;29;20005;-60
2023/10/16 11:55:50;;;;;;;9.35;3.78;;;;;;;;;;4934317;29;20492;-61
2023/10/16 11:58:16;;;;;;;7.55;3.90;;;;;;;;;;4933386;29;20035;-61
2023/10/16 12:00:53;;;;;;;7.68;3.60;;;;;;;;;;4935286;29;20032;-62
2023/10/16 12:03:18;;;;;;;5.65;3.40;;;;;;;;;;4928518;29;20040;-61
2023/10/16 12:05:43;;;;;;;6.25;3.75;;;;;;;;;;4923142;29;20438;-62
2023/10/16 12:08:10;;;;;;;8.18;4.10;;;;;;;;;;4926940;29;20445;-62
2023/10/16 12:10:36;;;;;;;9.20;4.32;;;;;;;;;;4932613;29;20040;-61
2023/10/16 12:13:03;;;;;;;6.47;3.85;;;;;;;;;;4933633;29;20056;-61
2023/10/16 12:15:28;;;;;;;7.90;4.20;;;;;;;;;;4919964;29;20046;-60
2023/10/16 12:17:55;;;;;;;9.35;4.32;;;;;;;;;;4906323;29;20063;-62
2023/10/16 12:20:26;;;;;;;12.57;4.75;;;;;;;;;;4949972;29;20031;-59
2023/10/16 12:22:52;;;;;;;7.22;4.38;;;;;;;;;;4926901;29;20028;-58
2023/10/16 12:25:18;;;;;;;9.23;4.22;;;;;;;;;;4917653;29;20039;-60
2023/10/16 12:27:45;;;;;;;9.82;4.57;;;;;;;;;;4923338;29;20345;-60
2023/10/16 12:30:13;;;;;;;9.52;4.55;;;;;;;;;;4948011;29;20043;-61
2023/10/16 12:32:39;;;;;;;8.07;4.30;;;;;;;;;;4945220;29;20059;-58
2023/10/16 12:35:08;;;;;;;7.88;4.25;;;;;;;;;;4938125;29;20039;-58
2023/10/16 12:37:34;;;;;;;9.02;3.78;;;;;;;;;;4936103;29;20043;-59
2023/10/16 12:40:05;;;;;;;7.22;3.80;;;;;;;;;;4937041;29;20028;-59
2023/10/16 12:42:33;;;;;;;5.05;3.10;;;;;;;;;;4936318;29;20042;-59
2023/10/16 12:44:58;;;;;;;6.28;3.15;;;;;;;;;;4937131;29;20031;-61
2023/10/16 12:47:24;;;;;;;6.38;2.90;;;;;;;;;;4936246;29;20042;-61
2023/10/16 12:49:53;;;;;;;5.68;3.00;;;;;;;;;;4920288;29;20490;-61
2023/10/16 12:52:18;;;;;;;5.35;2.72;;;;;;;;;;4935500;29;20143;-61
2023/10/16 12:54:45;;;;;;;5.38;2.50;;;;;;;;;;4924737;29;20036;-61
2023/10/16 12:57:10;;;;;;;7.28;2.90;;;;;;;;;;4937033;29;20027;-62
2023/10/16 12:59:36;;;;;;;7.10;2.70;;;;;;;;;;4936029;29;20035;-61
2023/10/16 13:02:04;;;;;;;6.55;2.97;;;;;;;;;;4941388;29;20070;-61
2023/10/16 13:04:33;;;;;;;4.32;2.50;;;;;;;;;;4935416;29;20091;-61
2023/10/16 13:06:59;;;;;;;6.18;2.80;;;;;;;;;;4936512;29;20052;-61
2023/10/16 13:09:25;;;;;;;5.60;2.60;;;;;;;;;;4935469;29;20114;-60
2023/10/16 13:11:51;;;;;;;6.63;2.40;;;;;;;;;;4935412;29;20536;-61
2023/10/16 13:14:17;;;;;;;4.53;2.47;;;;;;;;;;4935208;29;20380;-61
2023/10/16 13:16:53;;;;;;;4.43;1.95;;;;;;;;;;4936385;29;20095;-61
2023/10/16 13:19:19;;;;;;;3.40;2.15;;;;;;;;;;4935392;29;20043;-61
2023/10/16 13:21:46;;;;;;;4.72;2.15;;;;;;;;;;4936639;29;20110;-60
2023/10/16 13:24:13;;;;;;;4.65;2.30;;;;;;;;;;4935915;29;20043;-60
2023/10/16 13:26:39;;;;;;;3.20;2.30;;;;;;;;;;4919054;29;20042;-60
2023/10/16 13:29:07;;;;;;;6.15;2.80;;;;;;;;;;4919480;29;20035;-60
2023/10/16 13:31:46;;;;;;;5.28;2.80;;;;;;;;;;4915468;29;20703;-61
2023/10/16 13:34:15;;;;;;;6.10;2.80;;;;;;;;;;4938581;29;20473;-59
2023/10/16 13:37:28;;;;;;;5.82;2.75;;;;;;;;;;4943302;29;20118;-59
2023/10/16 13:39:41;;;;;;;6.03;2.90;;;;;;;;;;4927489;29;20102;-61
2023/10/16 13:42:10;;;;;;;5.88;2.78;;;;;;;;;;4917071;29;20036;-61
2023/10/16 13:44:36;;;;;;;4.75;2.65;;;;;;;;;;4931404;29;20054;-60
2023/10/16 13:47:06;;;;;;;6.80;3.05;;;;;;;;;;4919144;29;20028;-61
2023/10/16 13:49:34;;;;;;;5.20;2.67;;;;;;;;;;4935730;29;20408;-62
2023/10/16 13:51:59;;;;;;;6.43;2.97;;;;;;;;;;4926460;29;20110;-60
2023/10/16 13:54:25;;;;;;;6.57;2.90;;;;;;;;;;4940008;29;20119;-63
2023/10/16 13:56:51;;;;;;;3.88;2.50;;;;;;;;;;4935534;29;20366;-62
2023/10/16 13:59:19;;;;;;;3.63;2.25;;;;;;;;;;4934919;29;20043;-64
2023/10/16 14:01:46;;;;;;;6.15;2.80;;;;;;;;;;4934998;29;20388;-62
2023/10/16 14:04:16;;;;;;;4.78;2.70;;;;;;;;;;4934950;29;20039;-61
2023/10/16 14:06:52;;;;;;;7.10;3.15;;;;;;;;;;4935718;29;20028;-61
2023/10/16 14:09:19;;;;;;;8.45;2.70;;;;;;;;;;4932867;29;20040;-61
2023/10/16 14:11:48;;;;;;;5.72;2.75;;;;;;;;;;4935441;29;20051;-61
2023/10/16 14:14:18;;;;;;;4.25;2.70;;;;;;;;;;4935365;29;20127;-61
2023/10/16 14:17:02;;;;;;;6.28;2.58;;;;;;;;;;4935071;29;20051;-62
2023/10/16 14:19:31;;;;;;;5.60;2.35;;;;;;;;;;4935087;29;20096;-62
2023/10/16 14:21:59;;;;;;;4.22;2.45;;;;;;;;;;4919884;29;20043;-62
2023/10/16 14:24:26;;;;;;;5.00;2.53;;;;;;;;;;4934045;29;20071;-61
2023/10/16 14:26:55;;;;;;;4.57;2.33;;;;;;;;;;4918547;29;20038;-59
2023/10/16 14:29:21;;;;;;;4.35;2.10;;;;;;;;;;4928929;29;20469;-59
2023/10/16 14:31:51;;;;;;;4.40;1.98;;;;;;;;;;4935277;29;20114;-60
2023/10/16 14:34:21;;;;;;;3.35;2.08;;;;;;;;;;4934819;29;20039;-60
2023/10/16 14:36:53;;;;;;;4.65;2.08;;;;;;;;;;4936605;29;20047;-60
2023/10/16 14:39:20;;;;;;;7.07;2.38;;;;;;;;;;4943230;29;20047;-62
2023/10/16 14:41:47;;;;;;;6.00;2.50;;;;;;;;;;4934917;29;20032;-60
2023/10/16 14:44:13;;;;;;;5.35;2.20;;;;;;;;;;4934602;29;20523;-61
2023/10/16 14:46:39;;;;;;;5.47;2.40;;;;;;;;;;4935282;29;20094;-60
2023/10/16 14:49:09;;;;;;;4.30;2.50;;;;;;;;;;4934986;29;20063;-60
2023/10/16 14:51:37;;;;;;;6.82;2.20;;;;;;;;;;4925325;29;20105;-60
2023/10/16 14:54:04;;;;;;;2.88;2.17;;;;;;;;;;4946505;29;20128;-59
2023/10/16 14:56:29;;;;;;;7.30;2.50;;;;;;;;;;4933840;29;20043;-58
2023/10/16 14:58:55;;;;;;;4.68;2.38;;;;;;;;;;4935352;29;20031;-58
2023/10/16 15:01:21;;;;;;;7.53;2.53;;;;;;;;;;4937735;29;20103;-56
2023/10/16 15:03:49;;;;;;;3.58;2.30;;;;;;;;;;4943382;29;20040;-60
2023/10/16 15:06:15;;;;;;;5.55;2.15;;;;;;;;;;4933788;29;20110;-58
2023/10/16 15:08:44;;;;;;;4.68;2.10;;;;;;;;;;4933652;29;20588;-57
2023/10/16 15:11:13;;;;;;;3.40;1.90;;;;;;;;;;4945268;29;20035;-60
2023/10/16 15:13:39;;;;;;;3.03;2.10;;;;;;;;;;4917599;29;20480;-60
2023/10/16 15:16:07;;;;;;;3.60;2.05;;;;;;;;;;4934374;29;20112;-60
2023/10/16 15:18:38;;;;;;;6.75;3.20;;;;;;;;;;4916420;29;20084;-58
2023/10/16 15:21:04;;;;;;;5.85;2.15;;;;;;;;;;4934841;29;20028;-58
2023/10/16 15:23:30;;;;;;;4.18;1.92;;;;;;;;;;4933681;29;20461;-58
2023/10/16 15:25:57;;;;;;;4.95;2.00;;;;;;;;;;4934570;29;20056;-60
2023/10/16 15:28:23;;;;;;;6.63;2.03;;;;;;;;;;4916735;29;20036;-61
2023/10/16 15:30:49;;;;;;;4.43;2.10;;;;;;;;;;4933827;29;20038;-59
2023/10/16 15:33:17;;;;;;;3.10;2.00;;;;;;;;;;4933730;29;20450;-58
2023/10/16 15:35:45;;;;;;;4.05;1.90;;;;;;;;;;4933249;29;20126;-58
2023/10/16 15:38:12;;;;;;;5.13;2.00;;;;;;;;;;4935272;29;20042;-59
2023/10/16 15:40:38;;;;;;;5.90;1.92;;;;;;;;;;4952858;29;20031;-59
2023/10/16 15:43:03;;;;;;;4.78;1.80;;;;;;;;;;4942387;29;20039;-58
2023/10/16 15:45:38;;;;;;;4.15;1.98;;;;;;;;;;4915127;29;20040;-58
2023/10/16 15:48:08;;;;;;;6.82;1.88;;;;;;;;;;4923580;29;20043;-57
2023/10/16 15:50:40;;;;;;;4.00;1.90;;;;;;;;;;4934973;29;20528;-57
2023/10/16 15:53:07;;;;;;;5.05;1.92;;;;;;;;;;4932410;29;20032;-59
2023/10/16 15:55:33;;;;;;;4.68;1.80;;;;;;;;;;4933409;29;20035;-58
2023/10/16 15:57:59;;;;;;;5.45;2.28;;;;;;;;;;4927042;29;20116;-59
2023/10/16 16:00:28;;;;;;;4.32;2.00;;;;;;;;;;4933548;29;20035;-60
2023/10/16 16:02:58;;;;;;;5.25;1.90;;;;;;;;;;4933334;29;20087;-59
2023/10/16 16:05:27;;;;;;;4.57;1.90;;;;;;;;;;4934110;29;20065;-59
2023/10/16 16:07:53;;;;;;;4.15;2.10;;;;;;;;;;4935618;29;20122;-62
2023/10/16 16:10:19;;;;;;;4.63;1.88;;;;;;;;;;4933779;29;20035;-58
2023/10/16 16:12:46;;;;;;;5.07;2.38;;;;;;;;;;4915587;29;20056;-57
2023/10/16 16:15:16;;;;;;;6.03;2.67;;;;;;;;;;4934119;29;20081;-58
2023/10/16 16:17:43;;;;;;;6.32;2.90;;;;;;;;;;4932934;29;20032;-58
2023/10/16 16:20:15;;;;;;;7.45;3.42;;;;;;;;;;4916815;29;20062;-59
2023/10/16 16:22:44;;;;;;;14.77;10.13;;;;;;;;;;4915696;29;20143;-60
2023/10/16 16:25:13;;;;;;;27.13;20.70;;;;;;;;;;4935478;29;20100;-59
2023/10/16 16:27:46;;;;;;;19.08;12.85;;;;;;;;;;4939282;29;20036;-58
2023/10/16 16:30:13;;;;;;;86.55;55.90;;;;;;;;;;4934037;29;20096;-58
2023/10/16 16:32:39;;;;;;;89.53;56.35;;;;;;;;;;4926107;29;20043;-59
2023/10/16 16:35:06;;;;;;;41.78;28.23;;;;;;;;;;4934039;29;20042;-59
2023/10/16 16:37:32;;;;;;;27.63;17.90;;;;;;;;;;4933055;29;20036;-58
2023/10/16 16:39:58;;;;;;;18.88;11.55;;;;;;;;;;4933964;29;20092;-58
2023/10/16 16:42:23;;;;;;;14.93;9.07;;;;;;;;;;4914771;29;20036;-60
2023/10/16 16:44:49;;;;;;;12.23;7.57;;;;;;;;;;4935753;29;20057;-59
2023/10/16 16:47:15;;;;;;;9.20;6.30;;;;;;;;;;4934221;29;20122;-58
2023/10/16 16:49:40;;;;;;;20.90;13.63;;;;;;;;;;4937412;29;20210;-59
2023/10/16 16:52:06;;;;;;;32.30;27.00;;;;;;;;;;4920320;29;20130;-56
2023/10/16 16:54:31;;;;;;;29.10;22.95;;;;;;;;;;4936474;29;20062;-58
2023/10/16 16:56:57;;;;;;;15.40;10.70;;;;;;;;;;4936991;29;20074;-56
2023/10/16 16:59:24;;;;;;;34.65;23.98;;;;;;;;;;4936954;29;20477;-60
2023/10/16 17:01:55;;;;;;;21.42;14.70;;;;;;;;;;4936226;29;20035;-57